Aktualne dane pomiarowe

Uwaga, wersja testowa! Automatyczne pobieranie danych za pomocą narzędzi lub skryptów to umożliwiających jest zabronione.

Dane meteo z obszaru Polski uzyskane na podstawie depesz SYNOP pobieranych co godzinę z NWS. Najedź myszką na symbol przedstawiony w tabeli, aby uzyskać informacje co do jego znaczenia. Prosimy pamiętać, że to testowa wersja strony, która jeszcze nie jest ukończona. Stworzono również jest krótki FAQ dotyczący korzystania z tej podstrony Anomalie temperatury w chwili obecnej odniesione są do okresu referencyjnego 1951-2016. Okres ten będzie później zmieniony na 1981-2010. Kliknij ikonę aby pobrać plik CSV. Kliknij ikonę aby wygenerować mapę synoptyczną dla danego terminu.

Wybierz Datę:    

        

Łask (12454)

Dane terminowe dla wybranej stacji. Kliknij datę, aby otrzymać dane z tego terminu dla wszystkich stacji.

TemperaturaZachmurzenieWiatrCiśnienieOpadyPogoda
 Data t td wb tx tn tg rh  Nt Nl Cl Cm Ch ws wd g1 g2 wx mslp ppp ch 24h 12h t ww ww w1 w2  
2019-07-04 23:00:00 11.7 3.5 7.3--- 5755.0wx-1wx---1016.9 994.0 -1.1---------
2019-07-04 22:00:00 11.9 4.1 7.6--- 5950.0wx-1wx---1017.3 994.3 -0.8---------
2019-07-04 21:00:00 13.5 3.8 8.3--- 5210.0wx-1wx---1017.3 994.5 -0.8---------
2019-07-04 20:00:00 15.2 2.4 8.7--- 4210.0wx-1wx---1017.8 995.0 -0.6---------
2019-07-04 19:00:00 16.7 2.0 9.3--- 3710.0wx-2wx---1017.7 995.1 -0.8---------
2019-07-04 18:00:00 19.8 1.1 10.5 22.3 15.3- 2910.0wx-4wx---1017.7 995.3 -1.0- 0.012-----
2019-07-04 17:00:00 20.9 1.0 10.9--- 2710.0wx-6wx---1017.9 995.6 -1.2---------
2019-07-04 16:00:00 21.2 1.2 11.1--- 2710.0wx-6wx---1018.2 995.9 -1.2---------
2019-07-04 15:00:00 21.6 1.9 11.5--- 2710.0wx-6wx-13-1018.6 996.3 -1.4---------
2019-07-04 14:00:00 21.1 2.5 11.5--- 2965.0wx-7wx---1019.1 996.8 -1.4---------
2019-07-04 13:00:00 20.5 2.2 11.2--- 3065.0wx-7wx-14-1019.5 997.1 -1.2---------
2019-07-04 12:00:00 20.5 3.5 11.6--- 3365.0wx-7wx-13-1020.1 997.7 -0.9- 0.06------
2019-07-04 11:00:00 18.7 3.2 10.7--- 3610.0wxwxwx7wx---1020.7 998.2 -0.3---------
2019-07-04 10:00:00 18.9 3.2 10.8--- 3565.0wxwxwx6wx---1020.8 998.3 -0.4---------
2019-07-04 09:00:00 17.6 3.6 10.3--- 3965.0wxwxwx7wx---1021.2 998.6 0.0---------
2019-07-04 08:00:00 18.3 4.0 10.8--- 3965.0wx-6wx---1021.1 998.5 -0.1---------
2019-07-04 07:00:00 17.2 4.9 10.6--- 4465.0wx-wx6wx---1021.4 998.7 0.1---------
2019-07-04 06:00:00 15.4 5.8 10.1 17.8 7.4 4 5360.0wx-wx3wx---1021.4 998.6 0.1 0.0 0.012------
2019-07-04 05:00:00 12.3 6.1 8.7--- 6655.0wx-wx2wx---1021.6 998.6 0.1---------
2019-07-04 04:00:00 8.6 5.1 6.5--- 7945.0wx-wx1wx---1021.9 998.6 0.2---------
2019-07-04 03:00:00 7.8 4.4 5.7--- 7945.0wx-1wx---1021.9 998.5 0.2---------
2019-07-04 02:00:00 8.2 4.6 6.0--- 7850.0wx-0----1021.9 998.5 0.2---------
2019-07-04 01:00:00 8.3 4.9 6.2--- 7950.0wx-1wx---1021.7 998.4 0.1---------
2019-07-04 00:00:00 9.6 4.5 6.6--- 7155.0wx-1wx---1021.5 998.3 0.0- 0.06------
2019-07-03 23:00:00 9.9 5.5 7.3--- 7455.0wx-1wx---1021.5 998.3 0.4---------
2019-07-03 22:00:00 12.1 3.6 7.5--- 5660.0wx-1wx---1021.4 998.3 1.1---------
2019-07-03 21:00:00 13.0 3.5 7.9--- 5260.0wx-wx1wx---1021.2 998.3 1.2---------
2019-07-03 20:00:00 14.7 3.1 8.7--- 4660.0wx-wx2wx---1020.7 997.9 0.7---------
2019-07-03 19:00:00 15.7 2.5 9.0--- 4165.0wxwxwx4wx---1020.0 997.2 0.3---------
2019-07-03 18:00:00 18.1 1.9 9.9 21.1 14.2- 3470.0wxwxwx4wx---1019.6 997.0 0.1- 0.012------
2019-07-03 17:00:00 18.7 1.7 10.1--- 3270.0wxwxwx6wx---1019.6 997.1 -0.1---------
2019-07-03 16:00:00 20.2 1.4 10.7--- 2970.0wxwxwx7wx---1019.3 996.9 -0.5---------
2019-07-03 15:00:00 20.7 1.6 11.0--- 2865.0wxwxwx5wx---1019.3 996.9 -0.6---------
2019-07-03 14:00:00 20.4 1.4 10.8--- 2870.0wxwxwx6wx---1019.6 997.2 -0.2---------
2019-07-03 13:00:00 19.7 3.0 11.1--- 3365.0wxwxwx6wx-11-1019.8 997.4 0.3---------
2019-07-03 12:00:00 18.5 2.2 10.2--- 3465.0wxwxwx7wx---1020.1 997.5 0.3- 0.06------
2019-07-03 11:00:00 17.8 1.6 9.7--- 3465.0wxwxwx6wx12--1020.0 997.4 -0.1---------
2019-07-03 10:00:00 18.6 2.1 10.2--- 3365.0wxwxwx7wx1212-1019.6 997.1 -0.1---------
2019-07-03 09:00:00 16.4 3.4 9.6--- 4265.0wxwxwx6wx---1019.9 997.2 0.2---------
2019-07-03 08:00:00 16.1 4.3 9.8--- 4565.0wxwxwx7wx---1020.2 997.5 0.9---------
2019-07-03 07:00:00 15.3 5.0 9.7--- 5060.0wxwxwx6wx---1020.0 997.2 0.8---------
2019-07-03 06:00:00 14.6 6.5 10.0 20.9 9.5 6 5855.0wxwxwx5wx---1019.8 997.0 0.4 0.0 0.012------
2019-07-03 05:00:00 13.4 6.4 9.4--- 6350.0wxwxwx2wx---1019.5 996.7 0.5---------
2019-07-03 04:00:00 11.6 7.4 9.0--- 7550.0wxwxwx1wx---1019.5 996.5 0.6---------
2019-07-03 03:00:00 9.5 6.6 7.7--- 8250.0wx-1wx---1019.8 996.6 0.8---------
2019-07-03 02:00:00 10.4 6.0 7.7--- 7460.0wx-2wx---1019.3 996.2 0.6---------
2019-07-03 01:00:00 10.7 6.0 7.9--- 7360.0wx-2wx---1019.0 995.9 0.5---------
2019-07-03 00:00:00 12.6 6.2 8.9--- 6560.0wx-2wx---1018.8 995.8 0.7- 0.06------
2.7 ms

 

Print Friendly, PDF & Email